Flyselskap
Antall som skal vises: 
Nr. Nettlenke Treff
1   Link   Agderfly
1816
2   Link   Airlift
2325
3   Link   BenAir
2024
4   Link   Bergen Air Transport
2171
5   Link   CHC Helikopter Service
1730
6   Link   Coast Air
2072
7   Link   European Flight Training Center
1851
8   Link   European Helicopter Center
2288
9   Link   Fly Taxi Nord
1980
10   Link   Flyreklame
2362
11   Link   Fonnafly Sjø
1731
12   Link   Guard Systems
3362
13   Link   Heli-Team
2219
14   Link   Helifly
1847
15   Link   Helikopter Utleie
1891
16   Link   Helikopterdrift
1811
17   Link   Helitrans
1793
18   Link   Hesnes Air
2304
19   Link   Kato Airline
1889
20   Link   Lufttransport
2303
«StartForrige12NesteSiste»
Side 1 av 2
 
METAR
2018/12/12 17:20 ENCN 121720Z 04007KT 9999 FEW033 M01/M03 Q1032
TAF
2018/12/12 15:37 TAF ENCN 121400Z 1215/1222 05008KT 9999 FEW012 BKN025 PROB40 TEMPO 1215/1222 4000 -SN BKN012
LN-KFK
Operativ VFR-natt
VFR dag
08:13 - 16:29
Brannvakt
Inaktiv
Banner
Banner
Banner
Banner
Banner